Gainsborough, Canada
Current Conditions -  °F | °C
As of 2:58 PM on Saturday 25 Oct 2014 (Local Time) from KMIB Reporting Station
Clear Clear  
Wind Chill: 58°   Ceiling: Unl
Heat Index: 58°   Visibility: 10mi
Dew Point: 27°   Wind: 6mph
Humidity: 30%   Direction: 220°SW
Pressure: 30.04"   Gusts: NA
Location:  49.17°N, 101.45°W
Report Text: KMIB 252058Z AUTO 22005KT 10SM CLR 15/M03 A3004 RMK AO2 SLP186 T01471026 57019 $
Loading
Personal Weather Stations






























Interactive Weather Map
Tropical Storm Tracking
New forecast layout! Learn more

10-Day Weather Forecast

Advertisements
Track Severe Weather on mobile